createdAt,value
2019-05-09T00:00:49.403Z,92.94
2019-05-09T00:01:49.376Z,92.75
2019-05-09T00:02:49.350Z,92.36
2019-05-09T00:03:49.323Z,92.36
2019-05-09T00:04:49.301Z,91.80
2019-05-09T00:05:49.273Z,91.70
2019-05-09T00:06:49.245Z,91.08
2019-05-09T00:07:49.219Z,90.80
2019-05-09T00:08:49.194Z,90.42
2019-05-09T00:09:49.165Z,90.70
2019-05-09T00:10:49.140Z,91.28
2019-05-09T00:11:49.114Z,91.37
2019-05-09T00:12:49.089Z,91.37
2019-05-09T00:13:49.061Z,91.28
2019-05-09T00:14:49.041Z,90.61
2019-05-09T00:15:49.015Z,90.70
2019-05-09T00:16:48.985Z,90.61
2019-05-09T00:17:48.957Z,90.14
2019-05-09T00:18:48.932Z,89.94
2019-05-09T00:19:48.905Z,90.14
2019-05-09T00:20:50.380Z,89.37
2019-05-09T00:21:48.852Z,88.80
2019-05-09T00:22:48.826Z,88.57
2019-05-09T00:23:48.800Z,88.61
2019-05-09T00:24:48.773Z,88.85
2019-05-09T00:25:48.746Z,89.28
2019-05-09T00:26:48.722Z,89.14
2019-05-09T00:27:48.697Z,88.90
2019-05-09T00:28:48.669Z,89.33
2019-05-09T00:29:48.643Z,88.57
2019-05-09T00:30:48.616Z,88.38
2019-05-09T00:31:48.590Z,88.09
2019-05-09T00:32:48.564Z,88.28
2019-05-09T00:33:48.542Z,88.28
2019-05-09T00:34:48.511Z,88.57
2019-05-09T00:35:48.487Z,87.90
2019-05-09T00:36:48.460Z,87.24
2019-05-09T00:37:48.432Z,86.38
2019-05-09T00:38:48.408Z,86.38
2019-05-09T00:39:48.380Z,86.57
2019-05-09T00:40:57.792Z,85.91
2019-05-09T00:41:50.733Z,86.76
2019-05-09T00:42:48.300Z,86.47
2019-05-09T00:43:48.275Z,86.10
2019-05-09T00:44:48.249Z,86.67
2019-05-09T00:45:48.223Z,85.91
2019-05-09T00:46:48.196Z,86.38
2019-05-09T00:47:48.170Z,85.05
2019-05-09T00:48:48.144Z,84.67
2019-05-09T00:49:48.117Z,85.24
2019-05-09T00:50:48.091Z,85.72
2019-05-09T00:51:48.065Z,87.14
2019-05-09T00:52:48.039Z,86.47
2019-05-09T00:53:48.015Z,88.19
2019-05-09T00:54:47.986Z,88.42
2019-05-09T00:55:47.963Z,90.04
2019-05-09T00:56:47.936Z,89.66
2019-05-09T00:57:47.910Z,90.23
2019-05-09T00:58:47.881Z,90.04
2019-05-09T00:59:47.855Z,91.94
2019-05-09T01:00:47.831Z,91.66
2019-05-09T01:01:47.801Z,91.66
2019-05-09T01:02:47.775Z,91.94
2019-05-09T01:03:47.748Z,91.08
2019-05-09T01:04:47.722Z,91.08
2019-05-09T01:05:47.709Z,91.89
2019-05-09T01:06:47.668Z,91.71
2019-05-09T01:07:47.641Z,92.27
2019-05-09T01:08:47.616Z,91.89
2019-05-09T01:09:47.593Z,92.37
2019-05-09T01:10:47.562Z,92.66
2019-05-09T01:11:47.537Z,92.56
2019-05-09T01:12:47.510Z,92.56
2019-05-09T01:13:47.483Z,91.61
2019-05-09T01:14:47.457Z,91.04
2019-05-09T01:15:47.430Z,91.13
2019-05-09T01:16:47.404Z,90.05
2019-05-09T01:17:47.377Z,88.76
2019-05-09T01:18:47.352Z,88.57
2019-05-09T01:19:47.324Z,87.76
2019-05-09T01:20:47.297Z,86.53
2019-05-09T01:21:47.270Z,85.43
2019-05-09T01:22:47.244Z,84.91
2019-05-09T01:23:47.217Z,84.44
2019-05-09T01:24:47.192Z,85.01
2019-05-09T01:25:47.164Z,84.82
2019-05-09T01:26:47.140Z,84.72
2019-05-09T01:27:47.112Z,85.39
2019-05-09T01:28:47.088Z,85.39
2019-05-09T01:29:48.290Z,85.58
2019-05-09T01:30:47.033Z,84.72
2019-05-09T01:31:47.006Z,84.25
2019-05-09T01:32:46.979Z,83.30
2019-05-09T01:33:46.952Z,83.39
2019-05-09T01:34:46.926Z,82.82
2019-05-09T01:35:48.401Z,82.54
2019-05-09T01:36:46.873Z,82.64
2019-05-09T01:37:46.846Z,81.97
2019-05-09T01:38:46.819Z,82.16
2019-05-09T01:39:46.793Z,81.87
2019-05-09T01:40:46.772Z,80.83
2019-05-09T01:41:48.243Z,81.12
2019-05-09T01:42:46.714Z,81.30
2019-05-09T01:43:46.688Z,80.96
2019-05-09T01:44:46.661Z,81.63
2019-05-09T01:45:47.184Z,81.82
2019-05-09T01:46:46.608Z,81.73
2019-05-09T01:47:46.583Z,82.96
2019-05-09T01:48:46.555Z,82.20
2019-05-09T01:49:46.528Z,82.49
2019-05-09T01:50:46.503Z,82.10
2019-05-09T01:51:46.475Z,81.82
2019-05-09T01:52:46.449Z,81.92
2019-05-09T01:53:46.422Z,82.20
2019-05-09T01:54:46.400Z,82.39
2019-05-09T01:55:46.369Z,82.96
2019-05-09T01:56:46.344Z,82.68
2019-05-09T01:57:48.000Z,83.25
2019-05-09T01:58:46.291Z,84.20
2019-05-09T01:59:46.272Z,88.00
2019-05-09T02:00:46.239Z,88.19
2019-05-09T02:01:46.212Z,88.38
2019-05-09T02:02:46.185Z,88.33
2019-05-09T02:03:46.161Z,89.14
2019-05-09T02:04:46.133Z,88.85
2019-05-09T02:05:46.107Z,88.33
2019-05-09T02:06:46.081Z,88.57
2019-05-09T02:07:46.055Z,87.24
2019-05-09T02:08:46.051Z,87.24
2019-05-09T02:09:46.000Z,87.24
2019-05-09T02:10:45.974Z,86.95
2019-05-09T02:11:45.947Z,87.24
2019-05-09T02:12:45.923Z,86.38
2019-05-09T02:13:45.896Z,86.76
2019-05-09T02:14:45.869Z,87.43
2019-05-09T02:15:45.842Z,87.24
2019-05-09T02:16:45.816Z,87.62
2019-05-09T02:17:57.853Z,87.62
2019-05-09T02:18:45.766Z,87.62
2019-05-09T02:19:45.737Z,88.09
2019-05-09T02:20:45.711Z,87.90
2019-05-09T02:21:45.684Z,88.28
2019-05-09T02:22:45.658Z,88.19
2019-05-09T02:23:45.632Z,88.19
2019-05-09T02:24:45.606Z,87.52
2019-05-09T02:25:45.579Z,87.62
2019-05-09T02:26:45.551Z,86.38
2019-05-09T02:27:45.526Z,86.57
2019-05-09T02:28:45.499Z,86.47
2019-05-09T02:29:45.473Z,86.95
2019-05-09T02:30:45.452Z,86.38
2019-05-09T02:31:45.422Z,86.00
2019-05-09T02:32:45.499Z,86.29
2019-05-09T02:33:45.998Z,85.53
2019-05-09T02:34:45.345Z,85.24
2019-05-09T02:35:55.796Z,85.24
2019-05-09T02:36:45.289Z,84.67
2019-05-09T02:37:45.263Z,84.77
2019-05-09T02:38:48.455Z,84.77
2019-05-09T02:39:45.214Z,85.43
2019-05-09T02:40:45.184Z,85.62
2019-05-09T02:42:00.891Z,85.15
2019-05-09T02:42:48.711Z,85.24
2019-05-09T02:43:45.103Z,86.76
2019-05-09T02:44:45.079Z,86.95
2019-05-09T02:45:49.357Z,88.19
2019-05-09T02:46:45.027Z,87.52
2019-05-09T02:47:45.007Z,87.62
2019-05-09T02:48:44.974Z,88.57
2019-05-09T02:49:44.948Z,87.90
2019-05-09T02:50:48.257Z,88.00
2019-05-09T02:51:44.893Z,87.43
2019-05-09T02:52:44.877Z,86.95
2019-05-09T02:53:44.840Z,86.67
2019-05-09T02:54:44.817Z,86.76
2019-05-09T02:55:44.795Z,86.29
2019-05-09T02:56:44.768Z,86.29
2019-05-09T02:57:44.735Z,86.29
2019-05-09T02:58:44.718Z,86.57
2019-05-09T02:59:44.682Z,87.05
2019-05-09T03:00:44.656Z,86.67
2019-05-09T03:01:44.628Z,87.14
2019-05-09T03:02:44.603Z,86.86
2019-05-09T03:03:44.576Z,86.95
2019-05-09T03:04:44.550Z,86.95
2019-05-09T03:05:44.524Z,87.19
2019-05-09T03:06:44.495Z,85.86
2019-05-09T03:07:44.470Z,86.15
2019-05-09T03:08:44.443Z,85.11
2019-05-09T03:09:44.416Z,85.01
2019-05-09T03:10:44.390Z,84.82
2019-05-09T03:11:44.366Z,84.39
2019-05-09T03:12:44.341Z,84.58
2019-05-09T03:13:44.309Z,83.72
2019-05-09T03:14:44.284Z,84.01
2019-05-09T03:15:44.262Z,83.44
2019-05-09T03:16:44.231Z,83.53
2019-05-09T03:17:44.204Z,82.87
2019-05-09T03:18:44.177Z,82.77
2019-05-09T03:19:44.909Z,82.58
2019-05-09T03:20:44.126Z,82.77
2019-05-09T03:21:44.106Z,82.29
2019-05-09T03:22:44.073Z,82.29
2019-05-09T03:23:44.046Z,82.68
2019-05-09T03:24:44.025Z,82.58
2019-05-09T03:25:43.994Z,82.77
2019-05-09T03:26:43.968Z,83.15
2019-05-09T03:27:43.943Z,83.62
2019-05-09T03:28:43.924Z,83.34
2019-05-09T03:29:43.888Z,83.91
2019-05-09T03:30:43.863Z,84.29
2019-05-09T03:31:43.837Z,84.01
2019-05-09T03:32:43.811Z,84.63
2019-05-09T03:33:43.786Z,84.44
2019-05-09T03:34:43.757Z,85.01
2019-05-09T03:35:43.735Z,84.82
2019-05-09T03:36:43.705Z,85.11
2019-05-09T03:37:43.677Z,85.20
2019-05-09T03:38:43.651Z,84.72
2019-05-09T03:39:43.627Z,84.82
2019-05-09T03:40:43.600Z,84.25
2019-05-09T03:41:43.572Z,83.97
2019-05-09T03:42:43.901Z,82.73
2019-05-09T03:43:43.521Z,82.92
2019-05-09T03:44:43.494Z,83.49
2019-05-09T03:45:43.467Z,83.49
2019-05-09T03:46:43.442Z,83.59
2019-05-09T03:47:43.415Z,83.97
2019-05-09T03:48:43.389Z,83.01
2019-05-09T03:49:43.364Z,83.97
2019-05-09T03:50:43.335Z,83.11
2019-05-09T03:51:43.309Z,82.07
2019-05-09T03:52:43.285Z,81.87
2019-05-09T03:53:43.257Z,82.64
2019-05-09T03:54:43.230Z,82.35
2019-05-09T03:55:43.205Z,82.73
2019-05-09T03:56:43.180Z,82.35
2019-05-09T03:57:43.150Z,82.64
2019-05-09T03:58:43.124Z,82.45
2019-05-09T03:59:43.098Z,82.64
2019-05-09T04:00:43.071Z,82.73
2019-05-09T04:01:46.606Z,82.82
2019-05-09T04:02:43.020Z,83.01
2019-05-09T04:03:42.991Z,83.11
2019-05-09T04:04:42.965Z,83.49
2019-05-09T04:05:55.394Z,83.39
2019-05-09T04:06:42.912Z,83.39
2019-05-09T04:07:42.885Z,83.59
2019-05-09T04:08:42.859Z,83.20
2019-05-09T04:09:42.831Z,82.88
2019-05-09T04:10:42.805Z,82.45
2019-05-09T04:11:42.778Z,81.97
2019-05-09T04:12:53.873Z,82.07
2019-05-09T04:13:42.725Z,81.59
2019-05-09T04:14:42.701Z,81.30
2019-05-09T04:15:42.672Z,80.74
2019-05-09T04:16:42.645Z,80.93
2019-05-09T04:17:42.619Z,80.35
2019-05-09T04:18:42.592Z,80.64
2019-05-09T04:19:42.565Z,80.74
2019-05-09T04:20:42.538Z,79.88
2019-05-09T04:21:42.511Z,80.07
2019-05-09T04:22:42.488Z,80.16
2019-05-09T04:23:42.459Z,79.22
2019-05-09T04:24:42.432Z,79.50
2019-05-09T04:25:42.405Z,80.07
2019-05-09T04:26:42.379Z,80.64
2019-05-09T04:27:42.353Z,80.55
2019-05-09T04:28:42.327Z,80.30
2019-05-09T04:29:42.298Z,80.87
2019-05-09T04:30:44.524Z,81.35
2019-05-09T04:31:42.246Z,82.39
2019-05-09T04:32:42.219Z,82.20
2019-05-09T04:33:42.192Z,82.68
2019-05-09T04:34:42.171Z,82.39
2019-05-09T04:35:42.140Z,82.87
2019-05-09T04:36:43.614Z,84.20
2019-05-09T04:37:42.086Z,84.67
2019-05-09T04:38:42.070Z,85.91
2019-05-09T04:39:42.041Z,87.24
2019-05-09T04:40:44.905Z,88.38
2019-05-09T04:41:41.998Z,89.14
2019-05-09T04:42:44.519Z,90.28
2019-05-09T04:43:41.934Z,90.61
2019-05-09T04:44:41.902Z,91.37
2019-05-09T04:45:42.047Z,91.18
2019-05-09T04:46:41.848Z,91.08
2019-05-09T04:47:43.575Z,91.99
2019-05-09T04:48:41.795Z,91.47
2019-05-09T04:49:45.168Z,91.56
2019-05-09T04:50:41.742Z,91.23
2019-05-09T04:51:41.716Z,91.80
2019-05-09T04:52:41.690Z,91.89
2019-05-09T04:53:41.663Z,91.47
2019-05-09T04:54:41.641Z,90.66
2019-05-09T04:55:41.610Z,91.08
2019-05-09T04:56:41.585Z,91.80
2019-05-09T04:57:41.558Z,92.41
2019-05-09T04:58:41.531Z,92.32
2019-05-09T04:59:41.505Z,92.80
2019-05-09T05:00:41.479Z,94.03
2019-05-09T05:01:41.452Z,93.84
2019-05-09T05:02:41.425Z,94.03
2019-05-09T05:03:41.400Z,93.55
2019-05-09T05:04:41.373Z,94.03
2019-05-09T05:05:41.347Z,93.18
2019-05-09T05:06:41.320Z,93.37
2019-05-09T05:07:41.294Z,92.99
2019-05-09T05:08:41.268Z,92.99
2019-05-09T05:09:41.241Z,92.22
2019-05-09T05:10:41.215Z,92.03
2019-05-09T05:11:41.188Z,92.13
2019-05-09T05:12:41.162Z,92.13
2019-05-09T05:13:41.142Z,92.13
2019-05-09T05:14:41.110Z,91.56
2019-05-09T05:15:41.084Z,91.56
2019-05-09T05:16:41.064Z,91.94
2019-05-09T05:17:41.031Z,91.37
2019-05-09T05:18:41.006Z,90.99
2019-05-09T05:19:40.978Z,90.14
2019-05-09T05:20:40.952Z,90.70
2019-05-09T05:21:40.926Z,90.14
2019-05-09T05:22:40.904Z,90.04
2019-05-09T05:23:40.875Z,89.47
2019-05-09T05:24:40.855Z,89.00
2019-05-09T05:25:40.825Z,88.52
2019-05-09T05:26:40.797Z,88.61
2019-05-09T05:27:40.770Z,89.18
2019-05-09T05:28:40.746Z,88.33
2019-05-09T05:29:40.718Z,88.52
2019-05-09T05:30:40.691Z,88.52
2019-05-09T05:31:40.666Z,88.04
2019-05-09T05:32:40.647Z,87.76
2019-05-09T05:33:40.615Z,88.04
2019-05-09T05:34:40.589Z,87.85
2019-05-09T05:35:40.563Z,87.47
2019-05-09T05:36:40.537Z,87.47
2019-05-09T05:37:40.510Z,86.43
2019-05-09T05:38:40.485Z,86.57
2019-05-09T05:39:40.463Z,86.33
2019-05-09T05:40:44.732Z,86.52
2019-05-09T05:41:40.408Z,85.90
2019-05-09T05:42:40.382Z,85.90
2019-05-09T05:43:44.577Z,85.99
2019-05-09T05:44:40.342Z,85.33
2019-05-09T05:45:40.303Z,85.24
2019-05-09T05:46:40.277Z,85.52
2019-05-09T05:47:40.252Z,86.85
2019-05-09T05:48:40.228Z,85.52
2019-05-09T05:49:40.204Z,85.90
2019-05-09T05:50:40.177Z,85.90
2019-05-09T05:51:40.151Z,85.94
2019-05-09T05:52:40.127Z,86.51
2019-05-09T05:53:40.100Z,86.51
2019-05-09T05:54:40.075Z,86.04
2019-05-09T05:55:40.053Z,86.51
2019-05-09T05:56:40.025Z,86.70
2019-05-09T05:57:40.003Z,87.08
2019-05-09T05:58:39.974Z,89.18
2019-05-09T05:59:40.944Z,89.56
2019-05-09T06:00:39.924Z,89.75
2019-05-09T06:01:39.902Z,88.51
2019-05-09T06:02:39.874Z,88.42
2019-05-09T06:03:39.849Z,88.89
2019-05-09T06:04:39.824Z,89.08
2019-05-09T06:05:39.798Z,89.47
2019-05-09T06:06:39.774Z,89.94
2019-05-09T06:07:39.750Z,90.42
2019-05-09T06:08:39.725Z,91.84
2019-05-09T06:09:39.699Z,90.42
2019-05-09T06:10:39.675Z,90.70
2019-05-09T06:11:39.650Z,90.70
2019-05-09T06:12:39.626Z,90.89
2019-05-09T06:13:53.275Z,91.41
2019-05-09T06:14:39.575Z,91.51
2019-05-09T06:15:39.556Z,91.13
2019-05-09T06:16:39.531Z,91.22
2019-05-09T06:17:39.543Z,91.03
2019-05-09T06:18:39.477Z,92.08
2019-05-09T06:19:39.453Z,92.18
2019-05-09T06:20:39.428Z,92.08
2019-05-09T06:21:39.403Z,92.89
2019-05-09T06:22:39.379Z,95.98
2019-05-09T06:23:39.386Z,94.65
2019-05-09T06:24:39.332Z,93.03
2019-05-09T06:25:39.305Z,93.13
2019-05-09T06:26:39.281Z,92.79
2019-05-09T06:27:42.431Z,92.98
2019-05-09T06:28:39.234Z,93.74
2019-05-09T06:29:39.210Z,94.32
2019-05-09T06:30:41.157Z,93.93
2019-05-09T06:31:39.162Z,93.93
2019-05-09T06:32:39.137Z,95.41
2019-05-09T06:33:46.477Z,95.60
2019-05-09T06:34:42.021Z,94.60
2019-05-09T06:35:39.064Z,95.65
2019-05-09T06:36:39.188Z,95.56
2019-05-09T06:37:39.016Z,93.74
2019-05-09T06:38:38.992Z,94.60
2019-05-09T06:39:38.978Z,94.51
2019-05-09T06:40:38.953Z,95.75
2019-05-09T06:41:38.918Z,95.27
2019-05-09T06:42:38.894Z,96.03
2019-05-09T06:43:39.589Z,95.94
2019-05-09T06:44:38.847Z,95.27
2019-05-09T06:45:41.458Z,94.60
2019-05-09T06:46:38.799Z,96.98
2019-05-09T06:47:38.776Z,97.56
2019-05-09T06:48:38.752Z,97.94
2019-05-09T06:49:38.728Z,97.75
2019-05-09T06:50:38.703Z,97.27
2019-05-09T06:51:38.881Z,98.22
2019-05-09T06:52:38.656Z,97.56
2019-05-09T06:53:38.633Z,97.75
2019-05-09T06:54:41.211Z,97.17
2019-05-09T06:55:38.715Z,96.03
2019-05-09T06:56:38.559Z,95.75
2019-05-09T06:57:42.211Z,95.46
2019-05-09T06:58:38.573Z,96.60
2019-05-09T06:59:38.488Z,96.41
2019-05-09T07:00:39.966Z,96.70
2019-05-09T07:01:38.441Z,97.84
2019-05-09T07:02:38.874Z,97.41
2019-05-09T07:03:38.393Z,99.60
2019-05-09T07:04:38.369Z,99.80
2019-05-09T07:05:38.764Z,99.22
2019-05-09T07:06:39.071Z,99.70
2019-05-09T07:07:38.297Z,97.80
2019-05-09T07:08:38.275Z,99.99
2019-05-09T07:09:38.528Z,99.99
2019-05-09T07:10:38.227Z,99.99
2019-05-09T07:11:38.241Z,99.99
2019-05-09T07:12:38.183Z,99.99
2019-05-09T07:13:38.290Z,99.99
2019-05-09T07:14:41.448Z,99.99
2019-05-09T07:15:38.109Z,99.51
2019-05-09T07:16:38.086Z,99.99
2019-05-09T07:17:38.710Z,99.99
2019-05-09T07:18:38.345Z,99.99
2019-05-09T07:19:38.554Z,99.99
2019-05-09T07:20:38.084Z,99.99
2019-05-09T07:21:37.969Z,99.99
2019-05-09T07:22:40.197Z,99.99
2019-05-09T07:23:37.926Z,99.99
2019-05-09T07:24:37.910Z,99.99
2019-05-09T07:25:37.901Z,99.99
2019-05-09T07:26:37.853Z,99.99
2019-05-09T07:27:39.075Z,99.99
2019-05-09T07:28:37.816Z,99.22
2019-05-09T07:29:37.785Z,99.99
2019-05-09T07:30:37.759Z,99.99
2019-05-09T07:31:38.066Z,99.99
2019-05-09T07:32:38.257Z,99.99
2019-05-09T07:33:38.372Z,99.99
2019-05-09T07:34:38.250Z,99.99
2019-05-09T07:35:38.309Z,99.99
2019-05-09T07:36:38.372Z,99.99
2019-05-09T07:37:38.017Z,99.99
2019-05-09T07:38:38.501Z,99.99
2019-05-09T07:39:38.298Z,99.99
2019-05-09T07:40:38.486Z,99.99
2019-05-09T07:41:38.431Z,99.99
2019-05-09T07:42:39.082Z,99.99
2019-05-09T07:43:38.431Z,99.99
2019-05-09T07:44:46.227Z,99.99
2019-05-09T07:45:38.390Z,99.99
2019-05-09T07:46:38.410Z,99.99
2019-05-09T07:47:38.735Z,99.99
2019-05-09T07:48:38.067Z,99.99
2019-05-09T07:49:37.790Z,99.99
2019-05-09T07:50:39.538Z,99.99
2019-05-09T07:51:37.463Z,99.99
2019-05-09T07:52:38.804Z,99.99
2019-05-09T07:53:38.034Z,99.99
2019-05-09T07:54:37.814Z,99.99
2019-05-09T07:55:37.932Z,99.99
2019-05-09T07:56:37.815Z,99.99
2019-05-09T07:57:44.934Z,99.99
2019-05-09T07:58:37.791Z,99.84
2019-05-09T07:59:38.914Z,99.99
2019-05-09T08:00:38.459Z,99.27
2019-05-09T08:01:38.478Z,99.99
2019-05-09T08:02:38.703Z,98.60
2019-05-09T08:03:38.501Z,99.99
2019-05-09T08:04:38.615Z,99.99
2019-05-09T08:05:38.501Z,99.99
2019-05-09T08:06:38.031Z,99.55
2019-05-09T08:07:38.154Z,99.99
2019-05-09T08:08:38.429Z,99.46
2019-05-09T08:09:38.770Z,99.75
2019-05-09T08:10:38.549Z,99.65
2019-05-09T08:11:37.624Z,99.99
2019-05-09T08:12:38.963Z,99.99
2019-05-09T08:13:39.132Z,99.99
2019-05-09T08:14:37.767Z,99.99
2019-05-09T08:15:38.404Z,99.99
2019-05-09T08:16:37.957Z,99.99
2019-05-09T08:17:38.178Z,99.99
2019-05-09T08:18:37.549Z,99.99
2019-05-09T08:19:38.054Z,99.99
2019-05-09T08:20:40.376Z,99.99
2019-05-09T08:21:38.339Z,99.99
2019-05-09T08:22:40.919Z,99.99
2019-05-09T08:23:39.498Z,99.99
2019-05-09T08:24:38.049Z,99.99
2019-05-09T08:25:38.214Z,99.99
2019-05-09T08:26:36.425Z,99.99
2019-05-09T08:27:37.828Z,99.99
2019-05-09T08:28:38.756Z,99.99
2019-05-09T08:29:39.357Z,99.99
2019-05-09T08:30:39.924Z,99.99
2019-05-09T08:31:40.073Z,99.99
2019-05-09T08:32:37.733Z,99.99
2019-05-09T08:33:38.035Z,99.99
2019-05-09T08:34:37.767Z,99.99
2019-05-09T08:35:38.416Z,99.99
2019-05-09T08:36:38.338Z,99.99
2019-05-09T08:37:38.779Z,99.99
2019-05-09T08:38:38.570Z,99.99
2019-05-09T08:39:38.282Z,99.99
2019-05-09T08:40:38.250Z,99.99
2019-05-09T08:41:38.481Z,99.99
2019-05-09T08:42:37.825Z,99.99
2019-05-09T08:43:37.707Z,99.99
2019-05-09T08:44:38.251Z,99.99
2019-05-09T08:45:38.063Z,99.99
2019-05-09T08:46:37.730Z,99.99
2019-05-09T08:47:38.056Z,99.99
2019-05-09T08:48:37.883Z,99.99
2019-05-09T08:49:37.431Z,99.99
2019-05-09T08:50:38.670Z,99.99
2019-05-09T08:51:47.563Z,99.99
2019-05-09T08:52:37.616Z,99.99
2019-05-09T08:53:37.964Z,99.99
2019-05-09T08:54:37.856Z,99.99
2019-05-09T08:55:38.132Z,99.99
2019-05-09T08:56:38.573Z,99.99
2019-05-09T08:57:37.521Z,99.99
2019-05-09T08:58:38.043Z,99.99
2019-05-09T08:59:38.072Z,99.99
2019-05-09T09:00:35.649Z,99.99
2019-05-09T09:02:05.028Z,99.99
2019-05-09T09:02:37.673Z,99.99
2019-05-09T09:03:37.759Z,99.99
2019-05-09T09:04:38.166Z,99.99
2019-05-09T09:05:37.858Z,99.99
2019-05-09T09:06:37.400Z,99.99
2019-05-09T09:07:37.754Z,99.99
2019-05-09T09:08:37.719Z,99.99
2019-05-09T09:09:37.720Z,99.99
2019-05-09T09:10:38.042Z,99.99
2019-05-09T09:11:35.403Z,99.99
2019-05-09T09:12:35.379Z,99.99
2019-05-09T09:13:37.619Z,99.99
2019-05-09T09:14:35.334Z,99.99
2019-05-09T09:15:57.965Z,99.99
2019-05-09T09:16:35.292Z,99.99
2019-05-09T09:17:35.267Z,99.99
2019-05-09T09:18:35.246Z,99.99
2019-05-09T09:19:35.224Z,99.99
2019-05-09T09:20:37.768Z,99.99
2019-05-09T09:21:35.179Z,99.99
2019-05-09T09:22:37.377Z,99.99
2019-05-09T09:23:44.011Z,99.99
2019-05-09T09:24:37.395Z,99.99
2019-05-09T09:25:35.092Z,99.66
2019-05-09T09:26:35.070Z,99.99
2019-05-09T09:27:35.049Z,99.99
2019-05-09T09:28:35.029Z,99.99
2019-05-09T09:29:38.030Z,99.99
2019-05-09T09:30:34.984Z,99.90
2019-05-09T09:31:34.963Z,99.99
2019-05-09T09:32:34.944Z,99.99
2019-05-09T09:33:37.468Z,99.99
2019-05-09T09:34:34.900Z,99.99
2019-05-09T09:35:34.877Z,99.99
2019-05-09T09:36:34.858Z,99.99
2019-05-09T09:37:47.581Z,99.99
2019-05-09T09:38:34.812Z,99.99
2019-05-09T09:39:34.823Z,99.99
2019-05-09T09:40:34.769Z,99.99
2019-05-09T09:41:34.775Z,99.95
2019-05-09T09:42:34.733Z,99.99
2019-05-09T09:43:34.703Z,99.99
2019-05-09T09:44:34.683Z,99.99
2019-05-09T09:45:34.659Z,99.99
2019-05-09T09:46:34.637Z,99.99
2019-05-09T09:47:34.616Z,99.99
2019-05-09T09:48:34.595Z,99.99
2019-05-09T09:49:34.707Z,99.99
2019-05-09T09:50:34.551Z,99.99
2019-05-09T09:51:34.541Z,99.99
2019-05-09T09:52:34.652Z,99.99
2019-05-09T09:53:34.484Z,99.99
2019-05-09T09:54:34.464Z,99.99
2019-05-09T09:55:34.442Z,99.99
2019-05-09T09:56:34.421Z,99.99
2019-05-09T09:57:34.398Z,99.99
2019-05-09T09:58:34.377Z,99.99
2019-05-09T09:59:37.403Z,99.33
2019-05-09T10:00:34.334Z,99.99
2019-05-09T10:01:34.313Z,99.99
2019-05-09T10:02:34.289Z,99.52
2019-05-09T10:03:34.272Z,99.52
2019-05-09T10:04:34.247Z,99.81
2019-05-09T10:05:34.224Z,98.75
2019-05-09T10:06:34.203Z,98.38
2019-05-09T10:07:34.181Z,97.33
2019-05-09T10:08:34.160Z,98.75
2019-05-09T10:09:34.137Z,99.48
2019-05-09T10:10:34.124Z,99.67
2019-05-09T10:11:34.095Z,99.67
2019-05-09T10:12:34.321Z,98.14
2019-05-09T10:13:34.054Z,97.28
2019-05-09T10:14:34.028Z,99.19
2019-05-09T10:15:34.006Z,99.57
2019-05-09T10:16:33.985Z,98.33
2019-05-09T10:17:33.962Z,99.33
2019-05-09T10:18:33.941Z,96.47
2019-05-09T10:19:33.923Z,96.18
2019-05-09T10:20:33.896Z,96.94
2019-05-09T10:21:33.876Z,97.42
2019-05-09T10:22:33.912Z,96.94
2019-05-09T10:23:33.850Z,96.32
2019-05-09T10:24:33.811Z,96.42
2019-05-09T10:25:33.790Z,94.89
2019-05-09T10:26:33.767Z,95.36
2019-05-09T10:27:33.745Z,94.02
2019-05-09T10:28:33.729Z,95.07
2019-05-09T10:29:34.451Z,94.89
2019-05-09T10:30:33.680Z,95.07
2019-05-09T10:31:33.657Z,95.65
2019-05-09T10:32:33.636Z,94.65
2019-05-09T10:33:33.613Z,94.46
2019-05-09T10:34:33.593Z,94.65
2019-05-09T10:35:33.575Z,95.36
2019-05-09T10:36:33.549Z,95.65
2019-05-09T10:37:33.527Z,96.51
2019-05-09T10:38:33.505Z,97.33
2019-05-09T10:39:33.483Z,96.75
2019-05-09T10:40:33.462Z,97.23
2019-05-09T10:41:33.439Z,97.75
2019-05-09T10:42:33.418Z,96.32
2019-05-09T10:43:38.679Z,95.79
2019-05-09T10:44:33.374Z,94.74
2019-05-09T10:45:33.357Z,94.84
2019-05-09T10:46:48.123Z,94.65
2019-05-09T10:47:33.309Z,94.74
2019-05-09T10:48:33.287Z,94.84
2019-05-09T10:49:33.265Z,94.74
2019-05-09T10:50:34.721Z,95.65
2019-05-09T10:51:33.222Z,94.31
2019-05-09T10:52:33.202Z,93.64
2019-05-09T10:53:33.178Z,92.11
2019-05-09T10:54:33.159Z,91.68
2019-05-09T10:55:33.136Z,93.21
2019-05-09T10:56:38.423Z,92.01
2019-05-09T10:57:33.104Z,91.30
2019-05-09T10:58:33.079Z,90.58
2019-05-09T10:59:33.052Z,92.97
2019-05-09T11:00:33.029Z,92.49
2019-05-09T11:01:33.006Z,91.34
2019-05-09T11:02:33.737Z,91.82
2019-05-09T11:03:32.963Z,90.77
2019-05-09T11:04:32.941Z,90.29
2019-05-09T11:05:32.919Z,89.62
2019-05-09T11:06:32.898Z,90.48
2019-05-09T11:07:32.878Z,91.44
2019-05-09T11:08:32.856Z,90.86
2019-05-09T11:09:32.833Z,89.86
2019-05-09T11:10:33.072Z,89.76
2019-05-09T11:11:32.853Z,92.30
2019-05-09T11:12:32.769Z,91.82
2019-05-09T11:13:32.749Z,91.72
2019-05-09T11:14:37.283Z,90.34
2019-05-09T11:15:32.707Z,90.05
2019-05-09T11:16:44.927Z,90.82
2019-05-09T11:17:32.664Z,91.20
2019-05-09T11:18:32.643Z,90.24
2019-05-09T11:19:32.622Z,90.34
2019-05-09T11:20:32.601Z,90.05
2019-05-09T11:21:32.579Z,89.67
2019-05-09T11:22:32.563Z,91.49
2019-05-09T11:23:34.039Z,90.24
2019-05-09T11:24:44.877Z,90.01
2019-05-09T11:25:32.494Z,91.25
2019-05-09T11:26:32.473Z,92.49
2019-05-09T11:27:32.452Z,93.84
2019-05-09T11:28:32.433Z,94.55
2019-05-09T11:29:35.420Z,95.61
2019-05-09T11:30:32.386Z,96.56
2019-05-09T11:31:32.369Z,97.42
2019-05-09T11:32:32.345Z,97.42
2019-05-09T11:33:32.323Z,97.04
2019-05-09T11:34:32.302Z,99.29
2019-05-09T11:35:33.781Z,97.28
2019-05-09T11:36:32.258Z,97.18
2019-05-09T11:37:32.236Z,98.43
2019-05-09T11:38:37.888Z,97.18
2019-05-09T11:39:39.754Z,97.47
2019-05-09T11:40:32.171Z,97.18
2019-05-09T11:41:32.149Z,96.99
2019-05-09T11:42:33.523Z,96.13
2019-05-09T11:43:32.105Z,95.98
2019-05-09T11:44:32.083Z,96.84
2019-05-09T11:45:32.061Z,96.94
2019-05-09T11:46:32.038Z,96.37
2019-05-09T11:47:41.524Z,95.84
2019-05-09T11:48:31.994Z,93.83
2019-05-09T11:49:31.972Z,93.35
2019-05-09T11:50:31.953Z,93.54
2019-05-09T11:51:31.927Z,91.72
2019-05-09T11:52:34.159Z,90.05
2019-05-09T11:53:31.884Z,91.11
2019-05-09T11:54:31.862Z,91.39
2019-05-09T11:55:36.434Z,91.39
2019-05-09T11:56:31.826Z,92.06
2019-05-09T11:57:31.796Z,92.68
2019-05-09T11:58:34.026Z,91.92
2019-05-09T11:59:31.753Z,89.72
2019-05-09T12:00:31.736Z,90.77
2019-05-09T12:01:31.722Z,92.82
2019-05-09T12:02:31.687Z,92.54
2019-05-09T12:03:31.670Z,90.19
2019-05-09T12:04:31.652Z,90.77
2019-05-09T12:05:31.622Z,92.78
2019-05-09T12:06:31.611Z,91.72
2019-05-09T12:07:31.579Z,93.35
2019-05-09T12:08:31.559Z,92.78
2019-05-09T12:09:31.536Z,91.53
2019-05-09T12:10:31.520Z,90.77
2019-05-09T12:11:31.494Z,91.72
2019-05-09T12:12:31.474Z,91.63
2019-05-09T12:13:31.451Z,92.73
2019-05-09T12:14:31.431Z,91.15
2019-05-09T12:15:31.429Z,91.05
2019-05-09T12:16:31.388Z,91.77
2019-05-09T12:17:49.181Z,93.26
2019-05-09T12:18:31.345Z,93.45
2019-05-09T12:19:31.338Z,93.16
2019-05-09T12:20:31.303Z,94.50
2019-05-09T12:21:31.281Z,93.93
2019-05-09T12:22:31.270Z,94.55
2019-05-09T12:23:31.238Z,92.40
2019-05-09T12:24:31.218Z,91.44
2019-05-09T12:25:31.200Z,90.86
2019-05-09T12:26:31.173Z,90.91
2019-05-09T12:27:31.154Z,93.83
2019-05-09T12:28:31.131Z,94.12
2019-05-09T12:29:31.115Z,94.69
2019-05-09T12:30:31.087Z,93.07
2019-05-09T12:31:31.066Z,93.16
2019-05-09T12:32:31.058Z,93.21
2019-05-09T12:33:32.954Z,93.98
2019-05-09T12:34:31.004Z,92.20
2019-05-09T12:35:30.979Z,91.82
2019-05-09T12:36:30.958Z,92.87
2019-05-09T12:37:32.438Z,90.38
2019-05-09T12:38:30.918Z,90.05
2019-05-09T12:39:30.898Z,90.72
2019-05-09T12:40:30.874Z,91.72
2019-05-09T12:41:31.775Z,93.16
2019-05-09T12:42:30.831Z,94.45
2019-05-09T12:43:35.317Z,92.68
2019-05-09T12:44:30.790Z,92.20
2019-05-09T12:45:30.768Z,90.43
2019-05-09T12:46:30.747Z,92.15
2019-05-09T12:47:30.727Z,92.44
2019-05-09T12:48:30.710Z,92.92
2019-05-09T12:49:31.445Z,92.35
2019-05-09T12:50:30.675Z,91.10
2019-05-09T12:51:30.646Z,90.09
2019-05-09T12:52:30.624Z,90.48